createdAt,value
2022-08-30T00:01:25.584Z,14.66
2022-08-30T00:03:55.715Z,14.65
2022-08-30T00:06:26.750Z,14.66
2022-08-30T00:08:55.308Z,14.61
2022-08-30T00:11:26.270Z,14.64
2022-08-30T00:13:56.044Z,14.62
2022-08-30T00:16:24.676Z,14.57
2022-08-30T00:18:52.781Z,14.56
2022-08-30T00:21:21.121Z,14.47
2022-08-30T00:23:50.511Z,14.33
2022-08-30T00:26:18.606Z,14.31
2022-08-30T00:28:46.725Z,14.23
2022-08-30T00:31:15.563Z,14.19
2022-08-30T00:33:44.146Z,14.19
2022-08-30T00:36:12.250Z,14.14
2022-08-30T00:38:40.301Z,14.11
2022-08-30T00:41:09.769Z,14.02
2022-08-30T00:43:38.096Z,14.05
2022-08-30T00:46:08.513Z,14.11
2022-08-30T00:48:40.947Z,14.03
2022-08-30T00:51:11.880Z,14.04
2022-08-30T00:53:43.641Z,13.98
2022-08-30T00:56:13.588Z,13.93
2022-08-30T00:58:46.170Z,13.89
2022-08-30T01:01:14.691Z,13.94
2022-08-30T01:03:44.360Z,13.82
2022-08-30T01:06:15.580Z,13.86
2022-08-30T01:08:44.050Z,13.93
2022-08-30T01:11:14.609Z,13.84
2022-08-30T01:13:43.126Z,13.75
2022-08-30T01:16:11.681Z,13.78
2022-08-30T01:18:40.050Z,13.82
2022-08-30T01:21:16.897Z,13.82
2022-08-30T01:23:50.244Z,13.86
2022-08-30T01:26:21.965Z,13.87
2022-08-30T01:28:55.967Z,13.90
2022-08-30T01:31:24.280Z,13.89
2022-08-30T01:33:52.652Z,13.88
2022-08-30T01:36:21.590Z,13.88
2022-08-30T01:38:53.663Z,13.96
2022-08-30T01:41:23.723Z,13.98
2022-08-30T01:43:53.967Z,13.95
2022-08-30T01:46:24.644Z,14.00
2022-08-30T01:48:54.556Z,14.00
2022-08-30T01:51:24.625Z,14.00
2022-08-30T01:53:54.401Z,14.00
2022-08-30T01:56:22.983Z,13.94
2022-08-30T01:58:51.920Z,13.96
2022-08-30T02:01:24.213Z,13.91
2022-08-30T02:03:54.918Z,13.97
2022-08-30T02:06:23.839Z,14.00
2022-08-30T02:08:51.869Z,14.02
2022-08-30T02:11:21.461Z,14.04
2022-08-30T02:13:51.973Z,14.09
2022-08-30T02:16:23.152Z,14.01
2022-08-30T02:18:51.893Z,14.00
2022-08-30T02:21:20.132Z,14.07
2022-08-30T02:23:48.208Z,14.05
2022-08-30T02:26:16.845Z,14.07
2022-08-30T02:28:49.692Z,14.12
2022-08-30T02:31:20.448Z,14.12
2022-08-30T02:33:50.951Z,14.06
2022-08-30T02:36:19.310Z,14.06
2022-08-30T02:38:47.777Z,13.95
2022-08-30T02:41:15.887Z,14.09
2022-08-30T02:43:44.129Z,14.01
2022-08-30T02:46:14.329Z,14.18
2022-08-30T02:48:42.533Z,14.11
2022-08-30T02:51:13.398Z,14.10
2022-08-30T02:53:43.713Z,14.10
2022-08-30T02:56:13.299Z,14.06
2022-08-30T02:58:42.869Z,14.10
2022-08-30T03:01:14.114Z,14.14
2022-08-30T03:03:43.649Z,14.04
2022-08-30T03:06:11.885Z,14.02
2022-08-30T03:08:40.220Z,14.05
2022-08-30T03:11:08.733Z,14.04
2022-08-30T03:13:36.979Z,14.07
2022-08-30T03:16:05.118Z,14.06
2022-08-30T03:18:34.761Z,14.09
2022-08-30T03:21:02.802Z,14.13
2022-08-30T03:23:31.502Z,14.06
2022-08-30T03:25:59.517Z,14.05
2022-08-30T03:28:27.547Z,14.06
2022-08-30T03:30:56.635Z,14.14
2022-08-30T03:33:24.818Z,14.11
2022-08-30T03:35:54.153Z,14.10
2022-08-30T03:38:22.208Z,14.11
2022-08-30T03:40:50.217Z,14.06
2022-08-30T03:43:18.948Z,14.10
2022-08-30T03:45:47.684Z,14.17
2022-08-30T03:48:15.978Z,14.11
2022-08-30T03:50:44.069Z,14.13
2022-08-30T03:53:13.473Z,14.10
2022-08-30T03:55:41.528Z,14.09
2022-08-30T03:58:09.821Z,14.12
2022-08-30T04:00:38.106Z,14.14
2022-08-30T04:03:06.250Z,14.13
2022-08-30T04:05:34.287Z,14.22
2022-08-30T04:08:02.283Z,14.15
2022-08-30T04:10:32.352Z,14.14
2022-08-30T04:13:00.393Z,14.10
2022-08-30T04:15:28.396Z,14.12
2022-08-30T04:17:56.452Z,14.17
2022-08-30T04:20:25.022Z,14.26
2022-08-30T04:22:53.115Z,14.22
2022-08-30T04:25:21.273Z,14.05
2022-08-30T04:27:51.150Z,14.09
2022-08-30T04:30:19.610Z,14.04
2022-08-30T04:32:47.779Z,13.90
2022-08-30T04:35:15.911Z,13.91
2022-08-30T04:37:44.078Z,13.88
2022-08-30T04:40:14.038Z,13.90
2022-08-30T04:42:43.608Z,13.97
2022-08-30T04:45:15.892Z,14.05
2022-08-30T04:47:44.627Z,14.11
2022-08-30T04:50:15.458Z,14.13
2022-08-30T04:52:44.365Z,14.09
2022-08-30T04:55:16.817Z,14.01
2022-08-30T04:57:48.157Z,14.07
2022-08-30T05:00:18.116Z,14.09
2022-08-30T05:02:46.165Z,14.06
2022-08-30T05:05:32.050Z,14.12
2022-08-30T05:08:00.350Z,14.16
2022-08-30T05:10:28.722Z,14.12
2022-08-30T05:12:56.981Z,14.13
2022-08-30T05:15:26.411Z,14.12
2022-08-30T05:17:54.449Z,14.19
2022-08-30T05:20:22.811Z,14.11
2022-08-30T05:22:53.755Z,14.12
2022-08-30T05:25:24.431Z,14.11
2022-08-30T05:27:52.856Z,14.13
2022-08-30T05:30:22.395Z,14.18
2022-08-30T05:32:52.810Z,14.12
2022-08-30T05:35:25.597Z,14.19
2022-08-30T05:37:54.177Z,14.22
2022-08-30T05:40:22.805Z,14.27
2022-08-30T05:42:50.856Z,14.26
2022-08-30T05:45:19.154Z,14.34
2022-08-30T05:47:47.843Z,14.32
2022-08-30T05:50:17.409Z,14.39
2022-08-30T05:52:46.097Z,14.50
2022-08-30T05:55:14.446Z,14.61
2022-08-30T05:57:42.788Z,14.77
2022-08-30T06:00:14.372Z,14.85
2022-08-30T06:02:43.233Z,14.74
2022-08-30T06:05:14.417Z,14.74
2022-08-30T06:07:44.627Z,15.00
2022-08-30T06:10:13.914Z,14.93
2022-08-30T06:12:44.879Z,15.03
2022-08-30T06:15:13.617Z,15.07
2022-08-30T06:17:41.650Z,15.22
2022-08-30T06:20:10.896Z,15.28
2022-08-30T06:22:39.456Z,15.27
2022-08-30T06:25:10.450Z,15.45
2022-08-30T06:27:38.528Z,15.43
2022-08-30T06:30:08.558Z,15.44
2022-08-30T06:32:36.679Z,15.62
2022-08-30T06:35:05.158Z,15.66
2022-08-30T06:37:33.816Z,15.63
2022-08-30T06:40:03.194Z,15.70
2022-08-30T06:42:34.854Z,15.84
2022-08-30T06:45:03.424Z,15.88
2022-08-30T06:47:40.228Z,16.09
2022-08-30T06:50:11.747Z,16.29
2022-08-30T06:52:40.721Z,16.31
2022-08-30T06:55:09.536Z,16.41
2022-08-30T06:57:39.120Z,16.44
2022-08-30T07:00:10.017Z,16.60
2022-08-30T07:02:38.567Z,16.61
2022-08-30T07:05:07.892Z,16.52
2022-08-30T07:07:36.725Z,16.69
2022-08-30T07:10:05.765Z,16.74
2022-08-30T07:12:33.941Z,16.80
2022-08-30T07:15:06.011Z,16.86
2022-08-30T07:17:48.867Z,17.00
2022-08-30T07:20:18.558Z,16.98
2022-08-30T07:22:47.280Z,16.98
2022-08-30T07:25:16.644Z,17.07
2022-08-30T07:27:48.071Z,17.09
2022-08-30T07:30:17.428Z,17.01
2022-08-30T07:32:45.849Z,16.95
2022-08-30T07:35:13.945Z,16.83
2022-08-30T07:37:42.107Z,16.82
2022-08-30T07:40:11.650Z,16.69
2022-08-30T07:42:40.995Z,16.65
2022-08-30T07:45:10.700Z,16.67
2022-08-30T07:47:40.446Z,16.65
2022-08-30T07:50:09.452Z,16.78
2022-08-30T07:55:11.126Z,16.89
2022-08-30T07:57:39.160Z,16.75
2022-08-30T08:00:08.250Z,16.90
2022-08-30T08:02:37.216Z,16.97
2022-08-30T08:05:08.180Z,17.09
2022-08-30T08:07:36.696Z,17.15
2022-08-30T08:10:06.006Z,17.21
2022-08-30T08:12:34.579Z,17.33
2022-08-30T08:15:05.435Z,17.36
2022-08-30T08:17:36.988Z,17.40
2022-08-30T08:20:07.426Z,17.41
2022-08-30T08:22:39.749Z,17.40
2022-08-30T08:25:08.835Z,17.25
2022-08-30T08:27:36.922Z,17.28
2022-08-30T08:30:05.932Z,17.30
2022-08-30T08:32:34.016Z,17.29
2022-08-30T08:35:02.211Z,17.40
2022-08-30T08:37:31.786Z,17.51
2022-08-30T08:39:59.878Z,17.58
2022-08-30T08:42:41.611Z,17.47
2022-08-30T08:45:14.297Z,17.46
2022-08-30T08:47:51.226Z,17.38
2022-08-30T08:50:21.758Z,17.45
2022-08-30T08:53:25.071Z,17.45
2022-08-30T08:55:59.025Z,17.48
2022-08-30T08:58:29.365Z,17.65
2022-08-30T09:00:59.109Z,17.71
2022-08-30T09:03:30.678Z,17.86
2022-08-30T09:05:59.168Z,17.95
2022-08-30T09:08:28.554Z,18.05
2022-08-30T09:11:01.605Z,18.02
2022-08-30T09:13:29.649Z,18.13
2022-08-30T09:16:00.164Z,18.25
2022-08-30T09:18:45.541Z,18.22
2022-08-30T09:21:15.511Z,18.32
2022-08-30T09:23:52.729Z,18.56
2022-08-30T09:26:30.247Z,18.38
2022-08-30T09:28:59.208Z,18.40
2022-08-30T09:31:30.775Z,18.36
2022-08-30T09:34:03.316Z,18.42
2022-08-30T09:36:41.695Z,18.43
2022-08-30T09:39:18.017Z,18.32
2022-08-30T09:41:49.234Z,18.46
2022-08-30T09:44:20.540Z,18.54
2022-08-30T09:46:52.236Z,18.66
2022-08-30T09:49:30.857Z,18.68
2022-08-30T09:52:13.149Z,18.77
2022-08-30T09:54:54.880Z,18.77
2022-08-30T09:57:34.296Z,18.79
2022-08-30T10:00:06.769Z,18.73
2022-08-30T10:02:46.949Z,18.89
2022-08-30T10:05:23.261Z,18.79
2022-08-30T10:08:02.970Z,18.82
2022-08-30T10:10:45.684Z,18.87
2022-08-30T10:13:39.566Z,18.89
2022-08-30T10:16:22.781Z,19.12
2022-08-30T10:18:59.137Z,19.03
2022-08-30T10:21:33.101Z,19.01
2022-08-30T10:24:05.463Z,18.86
2022-08-30T10:26:39.212Z,18.67
2022-08-30T10:29:12.412Z,18.47
2022-08-30T10:31:44.545Z,18.39
2022-08-30T10:34:18.077Z,18.41
2022-08-30T10:36:52.006Z,18.57
2022-08-30T10:39:26.344Z,18.45
2022-08-30T10:42:08.465Z,18.45
2022-08-30T10:44:41.419Z,18.47
2022-08-30T10:47:26.751Z,18.60
2022-08-30T10:50:04.003Z,18.57
2022-08-30T10:52:38.385Z,18.55
2022-08-30T10:55:11.214Z,18.56
2022-08-30T10:57:42.979Z,18.71
2022-08-30T11:00:15.141Z,18.58
2022-08-30T11:03:32.529Z,18.46
2022-08-30T11:06:15.220Z,18.41
2022-08-30T11:08:59.372Z,18.60
2022-08-30T11:11:38.440Z,18.97
2022-08-30T11:14:12.810Z,19.26
2022-08-30T11:16:43.955Z,19.43
2022-08-30T11:19:20.588Z,19.75
2022-08-30T11:21:50.846Z,19.49
2022-08-30T11:24:21.950Z,19.56
2022-08-30T11:27:00.949Z,19.41
2022-08-30T11:29:37.159Z,19.33
2022-08-30T11:32:40.363Z,19.59
2022-08-30T11:35:11.264Z,19.72
2022-08-30T11:37:42.968Z,19.90
2022-08-30T11:40:49.257Z,19.69
2022-08-30T11:43:51.276Z,19.56
2022-08-30T11:46:37.463Z,19.46
2022-08-30T11:49:31.596Z,19.54
2022-08-30T11:52:28.100Z,19.66
2022-08-30T11:55:34.686Z,19.67
2022-08-30T11:58:18.428Z,19.59
2022-08-30T12:00:52.634Z,19.64
2022-08-30T12:03:35.072Z,19.84
2022-08-30T12:06:05.099Z,19.90
2022-08-30T12:09:02.630Z,19.97
2022-08-30T12:11:58.582Z,19.90
2022-08-30T12:14:47.533Z,19.89
2022-08-30T12:17:52.184Z,19.73
2022-08-30T12:20:39.053Z,19.83
2022-08-30T12:23:20.183Z,19.67
2022-08-30T12:25:48.966Z,19.93
2022-08-30T12:28:24.010Z,19.89
2022-08-30T12:30:54.424Z,19.81
2022-08-30T12:33:36.597Z,19.72
2022-08-30T12:36:14.281Z,20.02
2022-08-30T12:38:42.880Z,20.33
2022-08-30T12:41:20.982Z,20.42
2022-08-30T12:43:51.255Z,21.43
2022-08-30T12:46:22.697Z,23.25
2022-08-30T12:48:51.318Z,24.67
2022-08-30T12:51:41.142Z,25.04
2022-08-30T12:54:16.949Z,25.53
2022-08-30T12:56:54.629Z,26.19
2022-08-30T12:59:56.785Z,27.30
2022-08-30T13:02:42.839Z,27.35
2022-08-30T13:05:32.146Z,27.33
2022-08-30T13:08:11.768Z,28.60
2022-08-30T13:10:51.295Z,28.09
2022-08-30T13:13:34.066Z,27.93
2022-08-30T13:16:22.012Z,27.12
2022-08-30T13:18:53.290Z,24.84
2022-08-30T13:21:30.771Z,22.92
2022-08-30T13:24:01.768Z,22.04
2022-08-30T13:26:33.819Z,21.35
2022-08-30T13:29:04.873Z,22.01
2022-08-30T13:31:38.763Z,23.77
2022-08-30T13:34:08.169Z,25.89
2022-08-30T13:36:38.883Z,27.86
2022-08-30T13:39:13.344Z,26.31
2022-08-30T13:41:41.544Z,26.06
2022-08-30T13:44:11.947Z,26.93
2022-08-30T13:46:44.050Z,27.40
2022-08-30T13:52:20.289Z,29.30
2022-08-30T13:54:50.390Z,29.43
2022-08-30T14:00:12.712Z,29.42
2022-08-30T14:02:47.608Z,26.98
2022-08-30T14:05:46.903Z,24.99
2022-08-30T14:08:44.350Z,23.63
2022-08-30T14:10:58.362Z,23.30
2022-08-30T14:13:29.173Z,22.62
2022-08-30T14:18:46.812Z,21.46
2022-08-30T14:21:16.293Z,21.48
2022-08-30T14:23:44.400Z,23.51
2022-08-30T14:26:17.263Z,25.54
2022-08-30T14:28:45.884Z,26.93
2022-08-30T14:31:20.361Z,28.18
2022-08-30T14:33:48.789Z,27.20
2022-08-30T14:36:18.888Z,27.36
2022-08-30T14:38:47.944Z,27.95
2022-08-30T14:41:17.072Z,27.96
2022-08-30T14:43:45.108Z,28.58
2022-08-30T14:46:13.661Z,27.85
2022-08-30T14:48:41.782Z,28.61
2022-08-30T14:51:15.340Z,26.58
2022-08-30T14:53:45.771Z,25.52
2022-08-30T14:56:16.857Z,24.18
2022-08-30T14:58:50.769Z,24.45
2022-08-30T15:01:20.085Z,25.09
2022-08-30T15:03:51.219Z,26.02
2022-08-30T15:06:19.550Z,27.37
2022-08-30T15:08:49.434Z,28.19
2022-08-30T15:11:21.120Z,27.65
2022-08-30T15:13:49.704Z,27.71
2022-08-30T15:16:24.698Z,27.33
2022-08-30T15:18:53.537Z,26.78
2022-08-30T15:21:25.957Z,26.86
2022-08-30T15:23:55.757Z,27.24
2022-08-30T15:26:24.656Z,27.25
2022-08-30T15:28:53.495Z,26.71
2022-08-30T15:31:24.091Z,25.27
2022-08-30T15:33:52.392Z,23.60
2022-08-30T15:36:20.965Z,22.39
2022-08-30T15:38:48.991Z,23.33
2022-08-30T15:41:18.393Z,24.28
2022-08-30T15:43:46.589Z,24.74
2022-08-30T15:46:22.601Z,25.44
2022-08-30T15:48:52.898Z,25.88
2022-08-30T15:51:21.426Z,25.82
2022-08-30T15:53:50.070Z,25.09
2022-08-30T15:56:20.066Z,25.34
2022-08-30T15:58:48.515Z,25.90
2022-08-30T16:01:17.348Z,26.03
2022-08-30T16:03:48.214Z,25.63
2022-08-30T16:06:19.144Z,26.25
2022-08-30T16:08:47.746Z,26.10
2022-08-30T16:11:18.745Z,25.18
2022-08-30T16:13:50.529Z,25.66
2022-08-30T16:16:20.794Z,25.01
2022-08-30T16:18:54.271Z,24.67
2022-08-30T16:21:25.306Z,25.19
2022-08-30T16:23:56.200Z,25.82
2022-08-30T16:26:25.621Z,25.62
2022-08-30T16:28:55.326Z,25.17
2022-08-30T16:31:24.351Z,25.67
2022-08-30T16:33:54.204Z,25.24
2022-08-30T16:36:22.664Z,25.52
2022-08-30T16:38:53.565Z,25.13
2022-08-30T16:41:25.619Z,25.00
2022-08-30T16:43:55.417Z,25.04
2022-08-30T16:46:27.517Z,23.85
2022-08-30T16:48:58.282Z,23.54
2022-08-30T16:51:29.184Z,23.53
2022-08-30T16:53:58.517Z,23.19
2022-08-30T16:56:29.566Z,22.59
2022-08-30T16:59:02.917Z,22.63
2022-08-30T17:04:20.731Z,20.88
2022-08-30T17:06:50.038Z,20.16
2022-08-30T17:09:18.693Z,19.85
2022-08-30T17:11:47.517Z,19.36
2022-08-30T17:14:20.140Z,19.11
2022-08-30T17:16:51.600Z,18.74
2022-08-30T17:19:26.271Z,18.84
2022-08-30T17:21:57.996Z,19.06
2022-08-30T17:24:26.857Z,18.91
2022-08-30T17:26:55.547Z,18.67
2022-08-30T17:29:25.021Z,18.53
2022-08-30T17:31:54.007Z,18.23
2022-08-30T17:34:23.095Z,18.10
2022-08-30T17:36:54.510Z,18.15
2022-08-30T17:39:23.450Z,17.78
2022-08-30T17:41:52.671Z,17.81
2022-08-30T17:47:13.318Z,17.53
2022-08-30T17:49:42.062Z,17.30
2022-08-30T17:54:58.970Z,17.07
2022-08-30T17:57:27.031Z,17.15
2022-08-30T17:59:58.200Z,17.04
2022-08-30T18:02:29.768Z,17.00
2022-08-30T18:05:00.095Z,16.90
2022-08-30T18:07:28.278Z,16.89
2022-08-30T18:09:56.262Z,16.73
2022-08-30T18:12:24.529Z,16.71
2022-08-30T18:14:54.974Z,16.57
2022-08-30T18:17:23.059Z,16.51
2022-08-30T18:19:53.645Z,16.43
2022-08-30T18:22:21.642Z,16.48
2022-08-30T18:24:49.914Z,16.44
2022-08-30T18:27:18.013Z,16.28
2022-08-30T18:29:47.105Z,16.25
2022-08-30T18:32:15.333Z,16.29
2022-08-30T18:34:43.764Z,16.20
2022-08-30T18:37:13.752Z,16.17
2022-08-30T18:39:44.988Z,16.19
2022-08-30T18:42:13.000Z,16.04
2022-08-30T18:44:43.866Z,15.89
2022-08-30T18:47:12.212Z,15.78
2022-08-30T18:49:40.498Z,15.77
2022-08-30T18:52:10.848Z,15.69
2022-08-30T18:54:42.332Z,15.58
2022-08-30T18:57:10.819Z,15.58
2022-08-30T18:59:39.507Z,15.43
2022-08-30T19:02:14.283Z,15.39
2022-08-30T19:04:44.111Z,15.46
2022-08-30T19:07:14.994Z,15.45
2022-08-30T19:09:45.202Z,15.42
2022-08-30T19:12:13.778Z,15.34
2022-08-30T19:14:43.016Z,15.33
2022-08-30T19:17:11.449Z,15.27
2022-08-30T19:19:48.542Z,15.17
2022-08-30T19:22:19.050Z,15.08
2022-08-30T19:24:49.970Z,15.13
2022-08-30T19:27:21.602Z,15.09
2022-08-30T19:30:06.710Z,15.05
2022-08-30T19:32:34.835Z,14.98
2022-08-30T19:35:02.948Z,14.96
2022-08-30T19:37:31.215Z,14.91
2022-08-30T19:40:06.216Z,14.86
2022-08-30T19:42:38.461Z,14.93
2022-08-30T19:45:13.521Z,14.89
2022-08-30T19:47:41.589Z,14.91
2022-08-30T19:50:12.796Z,14.88
2022-08-30T19:52:41.134Z,14.81
2022-08-30T19:55:12.420Z,14.68
2022-08-30T19:57:40.703Z,14.76
2022-08-30T20:00:12.575Z,14.73
2022-08-30T20:02:45.347Z,14.75
2022-08-30T20:05:18.948Z,14.72
2022-08-30T20:07:47.202Z,14.65
2022-08-30T20:10:25.993Z,14.64
2022-08-30T20:12:54.386Z,14.56
2022-08-30T20:15:22.938Z,14.47
2022-08-30T20:18:05.403Z,14.46
2022-08-30T20:20:36.272Z,14.42
2022-08-30T20:23:05.608Z,14.42
2022-08-30T20:24:23.219Z,21.90
2022-08-30T20:24:26.038Z,17.63
2022-08-30T20:24:26.504Z,17.31
2022-08-30T20:25:36.862Z,14.36
2022-08-30T20:28:05.094Z,14.36
2022-08-30T20:30:33.465Z,14.31
2022-08-30T20:33:06.909Z,14.37
2022-08-30T20:35:38.310Z,14.33
2022-08-30T20:38:06.959Z,14.20
2022-08-30T20:40:38.940Z,14.23
2022-08-30T20:43:08.041Z,14.17
2022-08-30T20:45:36.104Z,14.07
2022-08-30T20:48:05.705Z,14.14
2022-08-30T20:50:33.761Z,14.13
2022-08-30T20:53:01.901Z,14.01
2022-08-30T20:55:30.096Z,13.93
2022-08-30T20:57:59.769Z,13.92
2022-08-30T21:00:28.037Z,13.82
2022-08-30T21:02:56.152Z,13.85
2022-08-30T21:05:24.259Z,13.81
2022-08-30T21:07:52.839Z,13.79
2022-08-30T21:10:23.476Z,13.73
2022-08-30T21:12:52.260Z,13.68
2022-08-30T21:18:01.218Z,13.32
2022-08-30T21:20:30.010Z,13.18
2022-08-30T21:22:58.020Z,13.12
2022-08-30T21:25:26.082Z,13.17
2022-08-30T21:27:54.855Z,13.17
2022-08-30T21:30:24.696Z,13.18
2022-08-30T21:32:52.778Z,13.20
2022-08-30T21:35:50.118Z,13.18
2022-08-30T21:38:19.106Z,13.15
2022-08-30T21:40:48.395Z,13.12
2022-08-30T21:43:17.163Z,13.05
2022-08-30T21:45:47.220Z,12.98
2022-08-30T21:48:16.550Z,12.88
2022-08-30T21:50:45.676Z,12.75
2022-08-30T21:53:15.218Z,12.67
2022-08-30T21:55:43.866Z,12.69
2022-08-30T21:58:12.211Z,12.75
2022-08-30T22:00:40.430Z,12.86
2022-08-30T22:03:09.829Z,12.88
2022-08-30T22:05:37.827Z,12.90
2022-08-30T22:08:05.865Z,12.97
2022-08-30T22:10:33.892Z,12.98
2022-08-30T22:13:02.032Z,12.97
2022-08-30T22:15:32.044Z,12.80
2022-08-30T22:18:00.612Z,12.66
2022-08-30T22:20:30.531Z,12.64
2022-08-30T22:22:58.814Z,12.78
2022-08-30T22:25:26.886Z,12.83
2022-08-30T22:27:54.906Z,12.73
2022-08-30T22:30:22.904Z,12.57
2022-08-30T22:32:51.418Z,12.40
2022-08-30T22:35:20.852Z,12.12
2022-08-30T22:37:53.586Z,11.98
2022-08-30T22:40:22.457Z,11.87
2022-08-30T22:42:50.540Z,11.81
2022-08-30T22:45:18.825Z,12.03
2022-08-30T22:47:47.075Z,12.10
2022-08-30T22:50:15.313Z,12.02
2022-08-30T22:52:43.357Z,11.95
2022-08-30T22:55:12.867Z,11.78
2022-08-30T22:57:41.723Z,11.53
2022-08-30T23:00:15.086Z,11.40
2022-08-30T23:02:44.349Z,11.23
2022-08-30T23:05:13.581Z,11.16
2022-08-30T23:07:42.233Z,11.07
2022-08-30T23:10:13.292Z,10.95
2022-08-30T23:12:41.691Z,10.98
2022-08-30T23:15:12.295Z,10.89
2022-08-30T23:17:40.318Z,10.91
2022-08-30T23:20:09.413Z,10.78
2022-08-30T23:22:37.453Z,10.64
2022-08-30T23:25:24.278Z,10.53
2022-08-30T23:28:12.283Z,10.40
2022-08-30T23:31:06.627Z,10.44
2022-08-30T23:33:52.248Z,10.39
2022-08-30T23:36:37.933Z,10.38
2022-08-30T23:39:23.605Z,10.36
2022-08-30T23:42:09.285Z,10.32
2022-08-30T23:44:56.278Z,10.49
2022-08-30T23:47:41.866Z,10.54
2022-08-30T23:50:27.340Z,10.57
2022-08-30T23:53:13.070Z,10.62
2022-08-30T23:55:59.130Z,10.75
2022-08-30T23:58:44.703Z,10.77
